Time;durP1;ratioP1;P1;durP2;ratioP2;P2;SDS_P1;SDS_P2;PMS_P1;PMS_P2;Temp;Humidity;BMP_temperature;BMP_pressure;BME280_temperature;BME280_humidity;BME280_pressure;Samples;Min_cycle;Max_cycle;Signal;HPM_P1;HPM_P2
2022/06/24 00:00:37;;;;;;;7.90;2.40;;;;;;;19.47;57.02;100785.19;107036;1253;61282;-75
2022/06/24 00:03:07;;;;;;;4.20;2.20;;;;;;;19.45;57.41;100786.90;107112;1251;66808;-76
2022/06/24 00:05:35;;;;;;;4.90;2.40;;;;;;;19.39;57.68;100787.54;107156;1250;73042;-76
2022/06/24 00:08:06;;;;;;;3.60;2.30;;;;;;;19.37;57.29;100789.56;107099;1251;62131;-77
2022/06/24 00:10:36;;;;;;;3.50;2.30;;;;;;;19.36;57.58;100787.54;107155;1252;60413;-76
2022/06/24 00:13:06;;;;;;;4.20;2.30;;;;;;;19.32;57.75;100788.23;107062;1251;63317;-77
2022/06/24 00:15:37;;;;;;;3.60;2.30;;;;;;;19.27;58.03;100788.77;107106;1252;61637;-75
2022/06/24 00:18:18;;;;;;;5.40;2.40;;;;;;;19.25;57.96;100790.92;106995;1253;70682;-75
2022/06/24 00:20:50;;;;;;;2.90;2.00;;;;;;;19.20;58.22;100791.64;106977;1252;63667;-76
2022/06/24 00:23:21;;;;;;;6.30;2.40;;;;;;;19.19;58.10;100790.59;107104;1251;61420;-74
2022/06/24 00:25:50;;;;;;;5.20;2.80;;;;;;;19.04;59.40;100788.61;107150;1251;60358;-74
2022/06/24 00:28:25;;;;;;;8.20;2.30;;;;;;;19.07;58.68;100787.99;107156;1252;63326;-74
2022/06/24 00:30:56;;;;;;;3.70;2.30;;;;;;;19.04;58.72;100793.71;107042;1253;68809;-77
2022/06/24 00:33:33;;;;;;;7.20;2.20;;;;;;;19.03;58.72;100790.54;107005;1251;70499;-79
2022/06/24 00:36:02;;;;;;;3.80;2.10;;;;;;;19.01;58.73;100790.40;107150;1251;64263;-77
2022/06/24 00:38:38;;;;;;;3.80;2.70;;;;;;;18.93;59.39;100791.25;107198;1251;58258;-76
2022/06/24 00:41:14;;;;;;;4.00;2.50;;;;;;;18.89;59.35;100792.04;107328;1251;57546;-73
2022/06/24 00:43:53;;;;;;;3.30;2.40;;;;;;;18.85;59.68;100790.83;107346;1251;71925;-76
2022/06/24 00:46:26;;;;;;;4.30;2.50;;;;;;;18.77;59.70;100790.73;107248;1250;72859;-81
2022/06/24 00:48:58;;;;;;;3.50;2.50;;;;;;;18.71;60.12;100790.01;107178;1251;69972;-75
2022/06/24 00:51:38;;;;;;;4.50;2.30;;;;;;;18.69;59.84;100792.32;106884;1251;74310;-75
2022/06/24 00:54:14;;;;;;;4.20;2.70;;;;;;;18.62;60.77;100790.77;106985;1251;60659;-77
2022/06/24 00:56:45;;;;;;;4.30;2.30;;;;;;;18.57;60.78;100794.44;107189;1251;57455;-73
2022/06/24 00:59:13;;;;;;;7.60;2.50;;;;;;;18.58;60.34;100795.42;107209;1251;72774;-75
2022/06/24 01:01:43;;;;;;;5.30;2.40;;;;;;;18.54;60.61;100788.21;107425;1251;71757;-75
2022/06/24 01:04:12;;;;;;;3.40;2.30;;;;;;;18.47;61.33;100788.05;108048;1251;60927;-77
2022/06/24 01:06:44;;;;;;;6.60;2.40;;;;;;;18.46;61.41;100791.40;108274;1251;62453;-75
2022/06/24 01:09:13;;;;;;;6.10;2.30;;;;;;;18.44;61.41;100791.63;107328;1250;61693;-78
2022/06/24 01:11:43;;;;;;;6.80;2.50;;;;;;;18.38;61.57;100788.75;107177;1251;59031;-77
2022/06/24 01:14:12;;;;;;;4.80;2.80;;;;;;;18.30;62.27;100789.65;107255;1251;74566;-77
2022/06/24 01:16:41;;;;;;;6.20;2.60;;;;;;;18.22;63.02;100797.80;107040;1250;61624;-74
2022/06/24 01:19:14;;;;;;;5.40;2.80;;;;;;;18.20;62.57;100798.00;107129;1251;70524;-73
2022/06/24 01:21:50;;;;;;;4.30;2.70;;;;;;;18.18;62.69;100796.92;107178;1251;74462;-74
2022/06/24 01:24:22;;;;;;;6.00;2.50;;;;;;;18.17;62.72;100801.31;107023;1251;61082;-72
2022/06/24 01:26:58;;;;;;;5.10;2.50;;;;;;;18.11;63.08;100802.64;107223;1251;60865;-73
2022/06/24 01:29:27;;;;;;;6.70;2.60;;;;;;;18.11;63.03;100803.67;107197;1251;73611;-73
2022/06/24 01:31:56;;;;;;;6.90;2.70;;;;;;;18.09;63.31;100801.29;107170;1251;72049;-74
2022/06/24 01:34:24;;;;;;;4.00;2.80;;;;;;;18.06;63.25;100803.83;107108;1251;71485;-81
2022/06/24 01:36:53;;;;;;;5.30;2.70;;;;;;;18.01;63.41;100802.06;107142;1251;64118;-77
2022/06/24 01:39:22;;;;;;;4.40;2.70;;;;;;;17.95;63.40;100803.65;107150;1250;59036;-73
2022/06/24 01:41:52;;;;;;;3.00;2.60;;;;;;;17.91;63.31;100802.89;106904;1253;57387;-76
2022/06/24 01:44:22;;;;;;;6.20;2.80;;;;;;;17.90;63.10;100809.70;107105;1251;73235;-75
2022/06/24 01:46:52;;;;;;;7.40;2.50;;;;;;;17.86;63.15;100811.38;107053;1253;72746;-77
2022/06/24 01:49:21;;;;;;;6.20;2.70;;;;;;;17.77;63.94;100812.09;107119;1251;70956;-78
2022/06/24 01:51:54;;;;;;;3.80;2.70;;;;;;;17.69;63.99;100810.73;106908;1251;73899;-76
2022/06/24 01:54:23;;;;;;;4.20;2.90;;;;;;;17.62;64.38;100810.73;107186;1251;58818;-73
2022/06/24 01:56:53;;;;;;;5.10;2.80;;;;;;;17.59;64.15;100814.68;107207;1250;60478;-74
2022/06/24 01:59:22;;;;;;;4.00;2.60;;;;;;;17.55;64.70;100817.67;107203;1250;71242;-71
2022/06/24 02:01:51;;;;;;;5.20;2.70;;;;;;;17.51;64.76;100817.51;107181;1251;69576;-72
2022/06/24 02:04:20;;;;;;;6.20;3.00;;;;;;;17.46;65.24;100820.08;107191;1252;67979;-72
2022/06/24 02:06:49;;;;;;;4.50;2.90;;;;;;;17.41;65.15;100819.12;107181;1251;72040;-75
2022/06/24 02:09:18;;;;;;;4.50;2.80;;;;;;;17.39;65.58;100822.66;107226;1251;62106;-73
2022/06/24 02:14:34;;;;;;;5.30;2.70;;;;;;;17.36;65.60;100822.81;107388;1251;71336;-76
2022/06/24 02:17:03;;;;;;;4.40;2.70;;;;;;;17.36;65.77;100819.54;107267;1251;73168;-75
2022/06/24 02:19:32;;;;;;;4.70;2.60;;;;;;;17.35;66.06;100822.39;107348;1251;71146;-73
2022/06/24 02:22:01;;;;;;;6.20;2.90;;;;;;;17.34;66.23;100819.55;107327;1251;72329;-75
2022/06/24 02:24:30;;;;;;;3.90;2.60;;;;;;;17.33;65.90;100818.69;107309;1250;60454;-72
2022/06/24 02:26:59;;;;;;;5.10;2.90;;;;;;;17.33;65.92;100821.73;107137;1251;59234;-75
2022/06/24 02:29:28;;;;;;;3.60;3.00;;;;;;;17.31;65.58;100817.02;107162;1251;71287;-78
2022/06/24 02:31:57;;;;;;;4.40;3.10;;;;;;;17.31;65.50;100818.10;107156;1251;63543;-71
2022/06/24 02:34:26;;;;;;;4.20;3.00;;;;;;;17.26;66.32;100818.20;107060;1251;68721;-72
2022/06/24 02:36:55;;;;;;;5.40;2.50;;;;;;;17.25;65.77;100819.52;107118;1250;73094;-70
2022/06/24 02:39:23;;;;;;;6.00;2.80;;;;;;;17.21;66.23;100820.62;107141;1251;64041;-74
2022/06/24 02:41:52;;;;;;;5.90;2.90;;;;;;;17.16;66.74;100821.10;107168;1251;59585;-75
2022/06/24 02:44:21;;;;;;;3.40;2.70;;;;;;;17.14;66.12;100823.73;107066;1250;72668;-75
2022/06/24 02:46:49;;;;;;;3.90;2.90;;;;;;;17.11;66.40;100821.95;107094;1251;72913;-79
2022/06/24 02:49:18;;;;;;;3.30;2.60;;;;;;;17.10;66.22;100823.86;107028;1251;68511;-71
2022/06/24 02:51:47;;;;;;;4.50;2.70;;;;;;;17.01;67.63;100820.80;107093;1251;70726;-74
2022/06/24 02:54:16;;;;;;;4.30;2.60;;;;;;;17.00;67.17;100819.86;107093;1250;62512;-73
2022/06/24 02:56:44;;;;;;;4.40;2.90;;;;;;;17.00;66.70;100822.70;107045;1251;61535;-72
2022/06/24 02:59:13;;;;;;;5.00;2.80;;;;;;;16.98;66.91;100826.10;107232;1251;71704;-72
2022/06/24 03:01:42;;;;;;;6.00;2.90;;;;;;;16.95;66.71;100827.20;107248;1250;70695;-72
2022/06/24 03:04:10;;;;;;;4.30;2.90;;;;;;;16.93;67.03;100827.71;107227;1251;69957;-75
2022/06/24 03:06:39;;;;;;;4.40;2.70;;;;;;;16.93;66.43;100830.23;107051;1252;72054;-74
2022/06/24 03:09:08;;;;;;;4.50;2.80;;;;;;;16.92;67.47;100829.48;107270;1250;62164;-74
2022/06/24 03:11:36;;;;;;;4.10;3.00;;;;;;;16.92;66.97;100834.50;107332;1251;61381;-76
2022/06/24 03:14:05;;;;;;;5.40;3.20;;;;;;;16.96;66.74;100833.98;107175;1251;72239;-75
2022/06/24 03:16:34;;;;;;;6.40;3.00;;;;;;;17.01;66.60;100836.49;107200;1251;69630;-73
2022/06/24 03:19:03;;;;;;;4.20;2.60;;;;;;;17.08;66.88;100844.09;107357;1251;72061;-77
2022/06/24 03:21:31;;;;;;;3.80;2.70;;;;;;;17.15;66.58;100845.18;107168;1251;74532;-75
2022/06/24 03:24:00;;;;;;;8.60;4.00;;;;;;;17.22;66.32;100847.30;107095;1250;59038;-77
2022/06/24 03:26:29;;;;;;;5.00;3.20;;;;;;;17.28;66.38;100848.11;107191;1251;59016;-76
2022/06/24 03:28:58;;;;;;;6.90;3.20;;;;;;;17.33;66.39;100847.83;107393;1250;73671;-77
2022/06/24 03:31:27;;;;;;;5.50;3.00;;;;;;;17.37;66.49;100849.35;107277;1251;72573;-79
2022/06/24 03:33:57;;;;;;;4.80;2.90;;;;;;;17.47;65.79;100852.20;107328;1251;62519;-75
2022/06/24 03:36:26;;;;;;;4.60;3.00;;;;;;;17.54;65.73;100857.98;107083;1251;70613;-74
2022/06/24 03:38:55;;;;;;;4.10;2.90;;;;;;;17.53;65.67;100861.41;107070;1251;61859;-74
2022/06/24 03:41:23;;;;;;;7.90;3.10;;;;;;;17.54;65.73;100865.91;107280;1251;61545;-74
2022/06/24 03:43:52;;;;;;;5.10;2.90;;;;;;;17.56;65.67;100866.77;107304;1250;72263;-75
2022/06/24 03:46:21;;;;;;;5.10;2.90;;;;;;;17.55;66.03;100870.98;107366;1251;70320;-76
2022/06/24 03:48:50;;;;;;;5.10;2.90;;;;;;;17.53;66.13;100870.59;106592;1251;919622;-76
2022/06/24 03:51:18;;;;;;;5.40;2.80;;;;;;;17.62;65.78;100870.04;107147;1251;73464;-74
2022/06/24 03:53:47;;;;;;;5.80;2.80;;;;;;;17.71;65.03;100870.58;107258;1251;61425;-81
2022/06/24 03:56:16;;;;;;;6.00;3.00;;;;;;;17.78;64.85;100879.05;107199;1251;57605;-80
2022/06/24 03:58:45;;;;;;;4.00;3.00;;;;;;;17.77;65.05;100877.48;107176;1251;72769;-80
2022/06/24 04:01:14;;;;;;;4.50;3.40;;;;;;;17.79;64.87;100881.27;107261;1251;72015;-74
2022/06/24 04:03:42;;;;;;;5.20;3.20;;;;;;;17.79;64.97;100881.07;107337;1251;70776;-76
2022/06/24 04:06:11;;;;;;;3.20;2.60;;;;;;;17.86;64.72;100880.23;107341;1251;72535;-78
2022/06/24 04:08:40;;;;;;;6.60;2.80;;;;;;;17.93;64.59;100882.98;107548;1250;61198;-79
2022/06/24 04:11:15;;;;;;;6.00;2.90;;;;;;;17.89;64.69;100885.70;107442;1251;57554;-74
2022/06/24 04:13:44;;;;;;;8.60;3.10;;;;;;;17.93;64.38;100887.17;107208;1251;73644;-75
2022/06/24 04:16:14;;;;;;;6.30;3.10;;;;;;;17.94;64.57;100888.40;107213;1251;71760;-74
2022/06/24 04:18:43;;;;;;;4.50;3.10;;;;;;;17.98;64.30;100891.34;107193;1251;71083;-74
2022/06/24 04:21:16;;;;;;;3.40;2.70;;;;;;;17.90;64.54;100890.39;107072;1251;74351;-75
2022/06/24 04:23:49;;;;;;;6.70;2.90;;;;;;;17.93;64.51;100894.45;107274;1251;59017;-75
2022/06/24 04:26:19;;;;;;;6.90;3.10;;;;;;;17.92;64.34;100892.29;107219;1251;60408;-76
2022/06/24 04:28:50;;;;;;;5.30;3.00;;;;;;;17.94;64.24;100889.83;107363;1251;63861;-75
2022/06/24 04:31:19;;;;;;;4.70;2.80;;;;;;;17.99;64.28;100890.13;107330;1250;61644;-75
2022/06/24 04:33:48;;;;;;;5.10;2.80;;;;;;;17.96;64.50;100889.20;107314;1251;68402;-72
2022/06/24 04:36:17;;;;;;;7.00;3.10;;;;;;;18.10;64.12;100890.83;107250;1251;73126;-73
2022/06/24 04:38:45;;;;;;;8.70;3.30;;;;;;;18.18;63.80;100892.88;107261;1251;61530;-75
2022/06/24 04:41:19;;;;;;;6.00;3.30;;;;;;;18.27;63.70;100897.92;107176;1251;58963;-75
2022/06/24 04:43:47;;;;;;;9.60;3.50;;;;;;;18.33;63.36;100900.00;107262;1251;72995;-75
2022/06/24 04:46:16;;;;;;;5.40;3.00;;;;;;;18.32;63.58;100900.19;107243;1251;61730;-77
2022/06/24 04:48:45;;;;;;;6.10;3.10;;;;;;;18.36;63.50;100901.56;107249;1251;60430;-74
2022/06/24 04:51:14;;;;;;;5.80;3.20;;;;;;;18.42;63.30;100902.36;107178;1251;73948;-67
2022/06/24 04:53:43;;;;;;;5.70;2.90;;;;;;;18.49;63.09;100901.98;107217;1251;61444;-71
2022/06/24 04:56:11;;;;;;;6.70;3.00;;;;;;;18.57;62.97;100906.23;107183;1253;61622;-65
2022/06/24 04:58:40;;;;;;;4.50;3.10;;;;;;;18.60;63.12;100907.38;107228;1251;63907;-67
2022/06/24 05:01:10;;;;;;;12.10;3.30;;;;;;;18.69;62.85;100906.66;107101;1251;61637;-70
2022/06/24 05:03:39;;;;;;;6.30;3.10;;;;;;;18.72;62.86;100902.63;107233;1251;59075;-65
2022/06/24 05:06:08;;;;;;;8.10;3.10;;;;;;;18.78;62.77;100904.87;107192;1251;73469;-68
2022/06/24 05:08:37;;;;;;;3.80;2.70;;;;;;;18.80;62.59;100900.55;107315;1251;60780;-67
2022/06/24 05:11:06;;;;;;;6.40;3.30;;;;;;;18.82;62.37;100900.89;107201;1253;57780;-69
2022/06/24 05:13:35;;;;;;;4.30;3.10;;;;;;;18.80;62.54;100898.98;107268;1251;72475;-68
2022/06/24 05:16:04;;;;;;;4.50;3.10;;;;;;;18.86;62.09;100902.37;107213;1251;73076;-66
2022/06/24 05:18:53;;;;;;;8.90;3.10;;;;;;;18.84;62.13;100900.70;107073;1250;71329;-68
2022/06/24 05:21:23;;;;;;;6.10;3.00;;;;;;;18.89;61.85;100902.41;107290;1251;72945;-65
2022/06/24 05:23:52;;;;;;;5.10;2.80;;;;;;;18.94;61.95;100903.49;107292;1250;60676;-66
2022/06/24 05:26:21;;;;;;;8.30;3.40;;;;;;;19.04;61.68;100902.16;107339;1250;61790;-67
2022/06/24 05:28:50;;;;;;;6.80;3.10;;;;;;;19.17;61.44;100902.83;107253;1250;73282;-65
2022/06/24 05:31:19;;;;;;;6.30;3.20;;;;;;;19.27;60.94;100896.89;107217;1250;72618;-73
2022/06/24 05:33:48;;;;;;;6.90;3.20;;;;;;;19.32;61.16;100894.37;107302;1250;69912;-66
2022/06/24 05:36:18;;;;;;;5.50;3.10;;;;;;;19.44;60.95;100894.21;107196;1251;73230;-68
2022/06/24 05:38:46;;;;;;;8.20;3.00;;;;;;;19.54;60.64;100894.16;107251;1251;61167;-66
2022/06/24 05:41:15;;;;;;;4.20;2.90;;;;;;;19.61;60.62;100896.34;107327;1251;57545;-66
2022/06/24 05:43:45;;;;;;;4.50;2.80;;;;;;;19.77;60.06;100893.08;107245;1251;62160;-76
2022/06/24 05:46:14;;;;;;;5.80;3.20;;;;;;;19.84;59.64;100893.41;107359;1250;72701;-78
2022/06/24 05:48:43;;;;;;;5.10;2.60;;;;;;;20.04;59.01;100897.97;107171;1250;71434;-77
2022/06/24 05:51:15;;;;;;;6.40;3.00;;;;;;;20.09;58.81;100899.20;107193;1250;74603;-78
2022/06/24 05:56:32;;;;;;;5.00;2.90;;;;;;;20.30;58.29;100894.00;107165;1251;58949;-78
2022/06/24 05:59:02;;;;;;;9.00;3.80;;;;;;;20.35;58.21;100895.41;107292;1250;63030;-77
2022/06/24 06:01:31;;;;;;;8.30;2.80;;;;;;;20.49;57.93;100895.84;107303;1250;71635;-76
2022/06/24 06:04:00;;;;;;;4.20;2.60;;;;;;;20.55;57.19;100899.70;107273;1250;71414;-79
2022/06/24 06:06:29;;;;;;;5.20;3.30;;;;;;;20.66;56.58;100897.50;107219;1250;72739;-78
2022/06/24 06:08:58;;;;;;;5.00;3.00;;;;;;;20.65;56.75;100894.75;107270;1251;58970;-77
2022/06/24 06:11:27;;;;;;;4.70;2.90;;;;;;;20.67;56.40;100901.61;106976;1251;61056;-76
2022/06/24 06:13:56;;;;;;;5.30;3.00;;;;;;;20.76;56.00;100886.61;107024;1251;73341;-76
2022/06/24 06:16:27;;;;;;;5.40;2.90;;;;;;;20.87;55.67;100890.77;107027;1251;71369;-81
2022/06/24 06:18:56;;;;;;;7.10;2.60;;;;;;;20.90;54.87;100889.85;107172;1251;70520;-81
2022/06/24 06:21:25;;;;;;;5.20;2.70;;;;;;;21.03;54.91;100890.75;107112;1251;74163;-77
2022/06/24 06:23:53;;;;;;;8.10;2.90;;;;;;;21.20;54.53;100887.63;106823;1251;61775;-81
2022/06/24 06:26:23;;;;;;;8.40;2.80;;;;;;;21.33;54.36;100882.71;107339;1249;57454;-79
2022/06/24 06:28:53;;;;;;;5.20;2.60;;;;;;;21.38;53.94;100881.30;107379;1250;73036;-78
2022/06/24 06:31:22;;;;;;;5.50;2.90;;;;;;;21.55;52.66;100886.34;107313;1250;62109;-76
2022/06/24 06:33:51;;;;;;;4.70;2.70;;;;;;;21.65;52.42;100878.00;107268;1251;70588;-79
2022/06/24 06:36:20;;;;;;;3.30;2.50;;;;;;;21.70;52.60;100878.65;107257;1251;62996;-80
2022/06/24 06:38:49;;;;;;;3.60;2.60;;;;;;;21.87;52.27;100878.93;107321;1250;60356;-80
2022/06/24 06:41:18;;;;;;;5.00;2.70;;;;;;;21.92;51.62;100880.61;107340;1251;61032;-81
2022/06/24 06:43:47;;;;;;;4.60;2.70;;;;;;;22.02;51.40;100882.17;107240;1251;74136;-81
2022/06/24 06:46:16;;;;;;;6.30;2.50;;;;;;;22.12;50.69;100886.09;107435;1250;72569;-78
2022/06/24 06:48:45;;;;;;;11.10;3.40;;;;;;;22.15;50.01;100890.50;106958;1251;71091;-80
2022/06/24 06:51:15;;;;;;;6.80;2.60;;;;;;;22.09;50.07;100882.53;107359;1250;75021;-78
2022/06/24 06:53:44;;;;;;;4.90;2.50;;;;;;;22.20;49.96;100885.27;107300;1251;61150;-77
2022/06/24 06:56:13;;;;;;;4.50;2.50;;;;;;;22.14;50.05;100885.48;107453;1250;60214;-76
2022/06/24 06:58:42;;;;;;;7.30;2.70;;;;;;;22.21;49.77;100874.77;107412;1250;63543;-76
2022/06/24 07:01:11;;;;;;;4.60;2.50;;;;;;;22.22;49.89;100877.33;107450;1249;60723;-78
2022/06/24 07:03:40;;;;;;;10.00;2.60;;;;;;;22.20;50.13;100874.31;107111;1251;59940;-75
2022/06/24 07:06:09;;;;;;;4.70;2.80;;;;;;;22.17;50.62;100868.98;107319;1250;63361;-78
2022/06/24 07:08:38;;;;;;;8.50;2.70;;;;;;;22.33;50.41;100870.64;107310;1251;59104;-79
2022/06/24 07:11:13;;;;;;;5.80;2.60;;;;;;;22.40;50.57;100867.88;107523;1250;60522;-78
2022/06/24 07:13:41;;;;;;;5.00;2.40;;;;;;;22.44;50.18;100863.10;107685;1250;74369;-77
2022/06/24 07:16:11;;;;;;;6.90;2.80;;;;;;;22.51;49.28;100870.34;107958;1250;61360;-79
2022/06/24 07:18:42;;;;;;;5.70;2.60;;;;;;;22.63;48.47;100867.38;107673;1251;59932;-79
2022/06/24 07:21:13;;;;;;;6.10;2.50;;;;;;;22.79;47.69;100870.98;107897;1250;62461;-79
2022/06/24 07:23:43;;;;;;;6.30;2.60;;;;;;;22.80;47.57;100871.03;108713;1250;58289;-78
2022/06/24 07:26:13;;;;;;;5.80;2.50;;;;;;;22.88;47.49;100862.43;107492;1250;60052;-78
2022/06/24 07:28:42;;;;;;;6.40;2.50;;;;;;;22.99;46.91;100866.54;107478;1250;63967;-79
2022/06/24 07:31:19;;;;;;;5.60;2.30;;;;;;;23.15;46.81;100862.65;107254;1251;71943;-77
2022/06/24 07:33:49;;;;;;;3.50;2.70;;;;;;;23.20;46.80;100850.69;107406;1249;70975;-76
2022/06/24 07:36:17;;;;;;;6.40;2.50;;;;;;;23.38;46.91;100853.52;107376;1250;74418;-76
2022/06/24 07:38:46;;;;;;;4.20;2.30;;;;;;;23.54;46.19;100851.17;107367;1250;57506;-78
2022/06/24 07:41:15;;;;;;;5.90;2.80;;;;;;;23.61;45.64;100848.90;107361;1250;59100;-76
2022/06/24 07:43:44;;;;;;;9.80;2.60;;;;;;;23.69;45.90;100849.22;107368;1250;72841;-80
2022/06/24 07:46:13;;;;;;;8.30;2.30;;;;;;;23.82;45.20;100843.91;107225;1250;72677;-78
2022/06/24 07:48:41;;;;;;;5.10;2.30;;;;;;;24.02;44.61;100848.48;107324;1251;71199;-78
2022/06/24 07:51:13;;;;;;;4.00;2.20;;;;;;;24.03;44.05;100852.98;107456;1250;74914;-76
2022/06/24 07:53:45;;;;;;;4.20;2.50;;;;;;;24.04;43.76;100846.61;107252;1252;58711;-80
2022/06/24 07:59:06;;;;;;;6.40;2.40;;;;;;;24.33;42.50;100847.13;107254;1251;62943;-78
2022/06/24 08:01:37;;;;;;;3.80;2.10;;;;;;;24.28;42.50;100845.06;107355;1250;72564;-77
2022/06/24 08:04:09;;;;;;;4.10;2.00;;;;;;;24.34;42.17;100846.54;107493;1250;70040;-84
2022/06/24 08:06:40;;;;;;;2.70;2.20;;;;;;;24.27;42.16;100843.52;107546;1249;63271;-81
2022/06/24 08:09:09;;;;;;;3.50;2.40;;;;;;;24.43;41.62;100845.36;107484;1250;58840;-76
2022/06/24 08:11:38;;;;;;;5.40;2.40;;;;;;;24.33;41.66;100854.34;107390;1250;58608;-78
2022/06/24 08:14:07;;;;;;;5.90;2.20;;;;;;;24.23;41.52;100857.27;107364;1250;74086;-77
2022/06/24 08:16:36;;;;;;;4.00;2.10;;;;;;;24.13;41.23;100867.80;107401;1251;72671;-79
2022/06/24 08:19:10;;;;;;;3.50;1.90;;;;;;;24.06;41.37;100866.89;107514;1250;60470;-78
2022/06/24 08:21:39;;;;;;;5.20;2.10;;;;;;;24.05;41.32;100860.03;107306;1251;74077;-78
2022/06/24 08:24:09;;;;;;;6.30;2.60;;;;;;;24.09;41.41;100865.23;107345;1251;59022;-79
2022/06/24 08:26:38;;;;;;;3.20;2.10;;;;;;;23.96;41.63;100861.85;107366;1251;61087;-78
2022/06/24 08:29:07;;;;;;;5.50;2.10;;;;;;;23.94;41.80;100858.04;107333;1250;74050;-80
2022/06/24 08:31:35;;;;;;;3.30;2.10;;;;;;;24.01;41.92;100857.21;107346;1250;71702;-78
2022/06/24 08:34:05;;;;;;;4.40;2.20;;;;;;;24.09;42.06;100855.30;107388;1250;71198;-78
2022/06/24 08:36:33;;;;;;;5.20;2.20;;;;;;;24.14;41.94;100857.17;107438;1250;76174;-79
2022/06/24 08:39:03;;;;;;;5.20;1.90;;;;;;;24.20;42.08;100848.34;107395;1251;61464;-80
2022/06/24 08:41:32;;;;;;;6.20;2.20;;;;;;;24.22;41.59;100853.21;107440;1250;59012;-80
2022/06/24 08:44:01;;;;;;;5.50;2.30;;;;;;;24.36;41.40;100851.65;107409;1250;62328;-78
2022/06/24 08:46:30;;;;;;;6.90;2.20;;;;;;;24.37;40.21;100853.14;107317;1250;72735;-80
2022/06/24 08:49:00;;;;;;;4.50;2.30;;;;;;;24.40;40.66;100851.48;107391;1250;60652;-73
2022/06/24 08:51:30;;;;;;;3.60;2.30;;;;;;;24.37;40.86;100846.70;107316;1251;63794;-79
2022/06/24 08:54:01;;;;;;;3.90;2.20;;;;;;;24.49;40.65;100838.54;107354;1249;60479;-79
2022/06/24 08:56:51;;;;;;;2.90;2.00;;;;;;;24.66;40.39;100834.41;107500;1250;59087;-80
2022/06/24 08:59:20;;;;;;;5.90;2.40;;;;;;;24.80;39.98;100829.58;107380;1252;71916;-81
2022/06/24 09:01:49;;;;;;;4.20;2.30;;;;;;;25.04;39.79;100835.15;107350;1252;61562;-80
2022/06/24 09:04:25;;;;;;;5.10;1.90;;;;;;;25.25;39.49;100833.64;107588;1251;60052;-78
2022/06/24 09:06:54;;;;;;;5.70;2.10;;;;;;;25.40;39.19;100833.93;107717;1250;73431;-80
2022/06/24 09:09:26;;;;;;;4.90;2.30;;;;;;;25.64;38.14;100836.70;108915;1243;60606;-80
2022/06/24 09:11:57;;;;;;;5.40;2.00;;;;;;;25.61;38.12;100832.63;109194;1243;61658;-79
2022/06/24 09:14:49;;;;;;;3.60;2.10;;;;;;;25.69;37.91;100831.23;108613;1243;63472;-77
2022/06/24 09:17:31;;;;;;;3.90;1.80;;;;;;;25.69;38.15;100832.16;108126;1243;61621;-80
2022/06/24 09:20:11;;;;;;;3.70;2.30;;;;;;;25.55;37.74;100825.25;108124;1243;70617;-81
2022/06/24 09:23:07;;;;;;;6.10;2.50;;;;;;;25.39;38.76;100828.83;108000;1243;73893;-83
2022/06/24 09:25:59;;;;;;;3.70;2.10;;;;;;;25.04;38.87;100828.52;108217;1243;60845;-80
2022/06/24 09:28:33;;;;;;;;;;;;;;;24.90;39.17;100827.00;108064;1243;60787;-80
2022/06/24 09:31:11;;;;;;;8.10;2.10;;;;;;;24.74;38.78;100823.05;108154;1243;72663;-81
2022/06/24 09:33:44;;;;;;;4.60;2.10;;;;;;;24.72;39.18;100832.42;108162;1243;62135;-80
2022/06/24 09:36:13;;;;;;;7.50;2.10;;;;;;;24.69;39.46;100833.18;108142;1243;59912;-79
2022/06/24 09:39:03;;;;;;;5.60;2.20;;;;;;;24.62;39.70;100827.82;108191;1243;63317;-79
2022/06/24 09:41:47;;;;;;;3.80;2.30;;;;;;;24.63;39.71;100829.96;109062;1242;59242;-81
2022/06/24 09:44:18;;;;;;;3.30;2.00;;;;;;;24.54;39.79;100829.77;108369;1244;57518;-81
2022/06/24 09:47:00;;;;;;;5.80;2.40;;;;;;;24.38;40.04;100837.95;108298;1243;74037;-81
2022/06/24 09:49:29;;;;;;;3.70;2.30;;;;;;;24.28;39.71;100837.37;108193;1242;71889;-84
2022/06/24 09:51:58;;;;;;;6.40;2.20;;;;;;;24.37;39.91;100835.33;108266;1243;68244;-83
2022/06/24 09:54:28;;;;;;;3.80;1.90;;;;;;;24.43;39.46;100837.77;108116;1243;64171;-81
2022/06/24 09:56:58;;;;;;;2.60;1.90;;;;;;;24.55;38.74;100831.05;108035;1243;61682;-80
2022/06/24 10:02:20;;;;;;;4.70;2.40;;;;;;;24.46;39.17;100835.23;108335;1243;63583;-83
2022/06/24 10:04:53;;;;;;;3.00;2.10;;;;;;;24.66;39.14;100825.71;108136;1243;70938;-82
2022/06/24 10:07:27;;;;;;;5.30;2.10;;;;;;;24.76;39.25;100828.23;107935;1243;71369;-84
2022/06/24 10:10:06;;;;;;;6.50;2.70;;;;;;;24.87;39.64;100829.14;108273;1243;73793;-78
2022/06/24 10:12:40;;;;;;;8.20;2.20;;;;;;;24.83;39.96;100830.29;108428;1242;57403;-80
2022/06/24 10:15:10;;;;;;;3.20;1.90;;;;;;;24.97;39.72;100827.81;108810;1243;57526;-81
2022/06/24 10:17:41;;;;;;;3.80;2.30;;;;;;;25.16;39.41;100823.88;109271;1244;62204;-80
2022/06/24 10:20:15;;;;;;;4.00;2.20;;;;;;;25.36;39.35;100824.64;108625;1243;70479;-82
2022/06/24 10:22:48;;;;;;;2.80;1.90;;;;;;;25.50;38.43;100820.92;108312;1243;70463;-82
2022/06/24 10:25:42;;;;;;;3.30;2.00;;;;;;;25.62;38.04;100822.00;108269;1243;72733;-78
2022/06/24 10:28:10;;;;;;;;;;;;;;;25.77;37.51;100820.03;108233;1241;61363;-77
2022/06/24 10:30:39;;;;;;;4.20;2.10;;;;;;;25.87;36.58;100818.10;108253;1242;61681;-79
2022/06/24 10:33:23;;;;;;;7.30;2.30;;;;;;;26.04;36.45;100809.94;108270;1243;63859;-79
2022/06/24 10:36:06;;;;;;;3.60;1.90;;;;;;;26.12;36.33;100805.80;108238;1243;71555;-82
2022/06/24 10:38:42;;;;;;;3.60;2.00;;;;;;;26.06;36.04;100806.44;108258;1243;60594;-77
2022/06/24 10:41:12;;;;;;;4.90;1.80;;;;;;;26.03;35.74;100800.92;108366;1243;73609;-80
2022/06/24 10:43:44;;;;;;;3.60;1.70;;;;;;;26.22;35.64;100798.56;108891;1243;61735;-78
2022/06/24 10:46:12;;;;;;;8.20;1.90;;;;;;;26.34;35.25;100800.38;108392;1243;61667;-82
2022/06/24 10:48:47;;;;;;;2.90;1.70;;;;;;;26.37;34.86;100800.95;108295;1243;75070;-83
2022/06/24 10:51:18;;;;;;;3.60;1.80;;;;;;;26.62;34.34;100804.19;108246;1243;72173;-81
2022/06/24 10:54:02;;;;;;;4.50;1.80;;;;;;;26.58;33.88;100800.38;108197;1243;70945;-80
2022/06/24 10:56:41;;;;;;;6.20;1.90;;;;;;;26.81;34.12;100797.70;108231;1243;74438;-82
2022/06/24 10:59:14;;;;;;;6.00;2.60;;;;;;;26.92;33.86;100794.17;108323;1243;58901;-85
2022/06/24 11:01:46;;;;;;;3.90;2.00;;;;;;;26.98;33.45;100799.53;107853;1244;59226;-81
2022/06/24 11:04:30;;;;;;;7.70;1.90;;;;;;;26.92;33.15;100801.17;108066;1243;73748;-82
2022/06/24 11:07:10;;;;;;;6.00;1.70;;;;;;;26.69;33.62;100796.98;107947;1243;73060;-79
2022/06/24 11:09:39;;;;;;;4.30;1.70;;;;;;;26.60;33.72;100796.70;107892;1244;60393;-83
2022/06/24 11:12:33;;;;;;;5.20;1.80;;;;;;;26.57;33.62;100797.41;108057;1243;71800;-82
2022/06/24 11:15:07;;;;;;;4.10;1.80;;;;;;;26.27;33.90;100790.80;108885;1243;61233;-78
2022/06/24 11:17:43;;;;;;;4.50;1.90;;;;;;;26.33;33.65;100795.81;107912;1244;57502;-85
2022/06/24 11:20:13;;;;;;;6.50;1.80;;;;;;;26.39;33.66;100793.27;108131;1243;63406;-81
2022/06/24 11:22:46;;;;;;;4.00;2.00;;;;;;;26.41;33.72;100786.39;108832;1243;60887;-89
2022/06/24 11:25:18;;;;;;;6.30;2.50;;;;;;;26.46;33.87;100781.98;109156;1243;59241;-89
2022/06/24 11:27:48;;;;;;;6.50;1.80;;;;;;;26.60;33.83;100781.41;108120;1243;73100;-83
2022/06/24 11:30:18;;;;;;;3.70;1.80;;;;;;;26.65;33.50;100782.00;108133;1244;57503;-88
2022/06/24 11:33:01;;;;;;;7.60;1.90;;;;;;;26.67;33.17;100781.30;108608;1243;60531;-81
2022/06/24 11:35:30;;;;;;;5.10;1.80;;;;;;;26.70;33.33;100781.88;108201;1243;73583;-84
2022/06/24 11:37:59;;;;;;;2.90;1.80;;;;;;;27.17;32.62;100778.57;108206;1242;71343;-79
2022/06/24 11:40:33;;;;;;;5.70;1.90;;;;;;;27.22;32.45;100775.04;108222;1243;71537;-82
2022/06/24 11:43:15;;;;;;;5.70;1.80;;;;;;;26.93;32.73;100779.80;107737;1243;74660;-79
2022/06/24 11:45:49;;;;;;;5.00;1.80;;;;;;;27.29;32.39;100772.84;108155;1241;58571;-82